createdAt,value
2023-02-13T11:44:06.728Z,20.30
2023-02-13T11:46:56.436Z,22.13
2023-02-13T11:49:28.155Z,26.70
2023-02-13T11:52:02.899Z,28.50
2023-02-13T11:54:42.778Z,29.73
2023-02-13T11:57:40.852Z,30.00
2023-02-13T12:00:32.275Z,29.63
2023-02-13T12:03:01.593Z,28.70
2023-02-13T12:05:30.780Z,30.52
2023-02-13T12:08:03.217Z,29.35
2023-02-13T12:10:37.563Z,33.42
2023-02-13T12:13:25.450Z,42.72
2023-02-13T12:16:02.229Z,35.08
2023-02-13T12:18:36.856Z,37.75
2023-02-13T12:21:08.860Z,38.53
2023-02-13T12:23:54.086Z,41.67
2023-02-13T12:26:40.020Z,34.78
2023-02-13T12:29:20.944Z,42.50
2023-02-13T12:32:03.229Z,40.42
2023-02-13T12:35:10.780Z,53.60
2023-02-13T12:38:03.339Z,54.03
2023-02-13T12:41:01.476Z,79.15
2023-02-13T12:43:42.636Z,49.95
2023-02-13T12:46:45.646Z,38.22
2023-02-13T12:49:29.886Z,51.67
2023-02-13T12:51:59.223Z,66.13
2023-02-13T12:54:42.103Z,64.90
2023-02-13T12:57:38.035Z,53.75
2023-02-13T13:00:28.206Z,42.03
2023-02-13T13:03:35.949Z,41.50
2023-02-13T13:06:12.429Z,43.83
2023-02-13T13:08:51.457Z,40.45
2023-02-13T13:11:41.968Z,35.88
2023-02-13T13:14:28.954Z,38.13
2023-02-13T13:17:06.930Z,38.55
2023-02-13T13:19:54.122Z,41.40
2023-02-13T13:22:47.720Z,50.28
2023-02-13T13:25:52.183Z,38.47
2023-02-13T13:28:35.700Z,43.88
2023-02-13T13:31:05.474Z,51.33
2023-02-13T13:33:36.204Z,42.95
2023-02-13T13:36:41.096Z,45.10
2023-02-13T13:39:35.598Z,40.42
2023-02-13T13:42:15.906Z,44.85
2023-02-13T13:45:02.538Z,46.33
2023-02-13T13:47:56.099Z,45.92
2023-02-13T13:50:28.897Z,47.53
2023-02-13T13:53:42.925Z,33.65
2023-02-13T13:56:12.237Z,41.40
2023-02-13T13:58:50.641Z,40.53
2023-02-13T14:01:24.234Z,43.70
2023-02-13T14:04:00.534Z,39.72
2023-02-13T14:06:47.732Z,42.53
2023-02-13T14:09:44.115Z,41.25
2023-02-13T14:12:39.028Z,35.53
2023-02-13T14:15:27.828Z,40.30
2023-02-13T14:17:57.869Z,51.30
2023-02-13T14:21:01.359Z,46.45
2023-02-13T14:23:51.927Z,41.15
2023-02-13T14:26:40.602Z,34.38
2023-02-13T14:29:24.562Z,37.67
2023-02-13T14:32:03.087Z,39.90
2023-02-13T14:34:35.093Z,39.78
2023-02-13T14:37:18.326Z,38.92
2023-02-13T14:40:23.094Z,44.58
2023-02-13T14:43:16.125Z,40.80
2023-02-13T14:46:20.420Z,40.60
2023-02-13T14:49:07.921Z,32.78
2023-02-13T14:52:16.375Z,41.97
2023-02-13T14:54:57.129Z,35.88
2023-02-13T14:57:42.931Z,38.83
2023-02-13T15:00:50.443Z,34.72
2023-02-13T15:03:28.967Z,41.92
2023-02-13T15:06:02.647Z,52.72
2023-02-13T15:08:39.700Z,47.45
2023-02-13T15:11:28.426Z,56.03
2023-02-13T15:13:57.316Z,60.05
2023-02-13T15:16:27.478Z,49.45
2023-02-13T15:18:57.182Z,50.90
2023-02-13T15:21:34.061Z,40.78
2023-02-13T15:24:06.362Z,41.83
2023-02-13T15:26:36.241Z,56.70
2023-02-13T15:29:11.396Z,50.08
2023-02-13T15:31:43.378Z,42.22
2023-02-13T15:34:53.431Z,37.47
2023-02-13T15:37:24.915Z,37.17
2023-02-13T15:39:59.321Z,41.53
2023-02-13T15:42:28.272Z,45.35
2023-02-13T15:44:59.767Z,52.30
2023-02-13T15:47:34.843Z,47.63
2023-02-13T15:50:03.864Z,44.58
2023-02-13T15:52:37.980Z,53.03
2023-02-13T15:55:07.480Z,49.67
2023-02-13T15:57:36.730Z,51.55
2023-02-13T16:00:06.732Z,47.33
2023-02-13T16:02:49.193Z,50.40
2023-02-13T16:05:29.384Z,57.85
2023-02-13T16:08:33.852Z,45.80
2023-02-13T16:11:29.920Z,50.08
2023-02-13T16:14:05.176Z,45.45
2023-02-13T16:17:03.609Z,52.97
2023-02-13T16:19:38.637Z,49.65
2023-02-13T16:22:30.762Z,51.83
2023-02-13T16:25:18.124Z,41.90
2023-02-13T16:27:51.075Z,41.28
2023-02-13T16:30:33.393Z,49.05
2023-02-13T16:33:18.064Z,42.40
2023-02-13T16:38:29.125Z,55.22
2023-02-13T16:41:00.884Z,51.97
2023-02-13T16:43:48.020Z,48.17
2023-02-13T16:46:29.204Z,49.90
2023-02-13T16:49:02.916Z,49.90
2023-02-13T16:51:37.704Z,54.45
2023-02-13T16:54:12.609Z,48.33
2023-02-13T16:56:52.422Z,47.42
2023-02-13T16:59:48.571Z,42.60
2023-02-13T17:02:28.753Z,45.08
2023-02-13T17:05:03.674Z,48.42
2023-02-13T17:07:35.849Z,38.55
2023-02-13T17:10:32.253Z,41.75
2023-02-13T17:13:18.726Z,52.35
2023-02-13T17:15:49.575Z,43.53
2023-02-13T17:18:18.437Z,38.72
2023-02-13T17:20:47.395Z,41.00
2023-02-13T17:23:19.698Z,55.72
2023-02-13T17:25:51.698Z,46.58
2023-02-13T17:28:22.322Z,53.25
2023-02-13T17:30:52.905Z,47.83
2023-02-13T17:33:31.791Z,43.92
2023-02-13T17:36:00.678Z,50.33
2023-02-13T17:38:29.560Z,42.10
2023-02-13T17:40:58.764Z,41.92
2023-02-13T17:43:29.043Z,47.72
2023-02-13T17:46:00.079Z,47.38
2023-02-13T17:48:29.947Z,53.28
2023-02-13T17:50:59.238Z,53.08
2023-02-13T17:53:33.258Z,55.53
2023-02-13T17:56:02.160Z,41.40
2023-02-13T17:58:30.991Z,43.63
2023-02-13T18:01:00.472Z,51.65
2023-02-13T18:03:29.850Z,47.45
2023-02-13T18:05:58.724Z,46.85
2023-02-13T18:08:27.645Z,47.53
2023-02-13T18:10:56.840Z,46.15
2023-02-13T18:13:25.966Z,44.28
2023-02-13T18:15:55.254Z,46.30
2023-02-13T18:18:24.168Z,50.92
2023-02-13T18:20:57.895Z,51.58
2023-02-13T18:25:55.894Z,47.60
2023-02-13T18:28:25.071Z,48.50
2023-02-13T18:30:54.049Z,54.67
2023-02-13T18:33:22.952Z,45.42
2023-02-13T18:35:51.848Z,57.47
2023-02-13T18:38:20.731Z,49.10
2023-02-13T18:40:49.609Z,49.55
2023-02-13T18:43:18.852Z,50.90
2023-02-13T18:45:48.089Z,49.60
2023-02-13T18:48:16.946Z,41.88
2023-02-13T18:50:45.885Z,51.35
2023-02-13T18:53:14.831Z,48.13
2023-02-13T18:55:43.734Z,55.50
2023-02-13T18:58:12.675Z,49.42
2023-02-13T19:00:41.605Z,47.17
2023-02-13T19:03:10.470Z,48.13
2023-02-13T19:05:42.574Z,47.42
2023-02-13T19:08:11.460Z,45.90
2023-02-13T19:10:40.358Z,45.45
2023-02-13T19:13:09.198Z,47.08
2023-02-13T19:15:38.619Z,49.20
2023-02-13T19:18:08.760Z,46.45
2023-02-13T19:20:39.441Z,49.95
2023-02-13T19:23:08.439Z,52.05
2023-02-13T19:25:41.081Z,52.60
2023-02-13T19:28:10.040Z,55.53
2023-02-13T19:30:39.317Z,53.00
2023-02-13T19:33:08.193Z,55.13
2023-02-13T19:35:37.077Z,49.58
2023-02-13T19:38:06.015Z,45.92
2023-02-13T19:40:36.273Z,49.17
2023-02-13T19:43:05.219Z,56.30
2023-02-13T19:45:34.343Z,49.72
2023-02-13T19:48:03.246Z,48.58
2023-02-13T19:50:32.151Z,46.53
2023-02-13T19:53:00.975Z,48.42
2023-02-13T19:55:29.832Z,48.03
2023-02-13T19:57:58.860Z,45.97
2023-02-13T20:00:27.997Z,52.17
2023-02-13T20:03:05.456Z,46.72
2023-02-13T20:05:41.076Z,47.50
2023-02-13T20:08:09.985Z,44.95
2023-02-13T20:10:39.017Z,55.15
2023-02-13T20:13:07.864Z,47.63
2023-02-13T20:15:36.999Z,50.78
2023-02-13T20:18:06.113Z,46.67
2023-02-13T20:20:34.961Z,45.00
2023-02-13T20:23:03.864Z,42.38
2023-02-13T20:25:33.347Z,45.72
2023-02-13T20:28:02.291Z,46.85
2023-02-13T20:30:31.278Z,42.67
2023-02-13T20:33:00.263Z,44.28
2023-02-13T20:35:29.132Z,38.33
2023-02-13T20:38:00.004Z,50.08
2023-02-13T20:40:28.957Z,47.38
2023-02-13T20:42:57.954Z,41.95
2023-02-13T20:45:27.013Z,49.03
2023-02-13T20:47:55.993Z,45.70
2023-02-13T20:50:25.062Z,44.63
2023-02-13T20:52:54.057Z,44.05
2023-02-13T20:55:22.923Z,49.67
2023-02-13T20:57:51.792Z,44.17
2023-02-13T21:00:20.823Z,44.13
2023-02-13T21:02:49.739Z,46.83
2023-02-13T21:05:18.768Z,45.65
2023-02-13T21:07:48.059Z,45.58
2023-02-13T21:10:16.996Z,56.22
2023-02-13T21:12:45.886Z,43.30
2023-02-13T21:15:14.722Z,41.08
2023-02-13T21:17:43.567Z,43.90
2023-02-13T21:20:13.024Z,44.83
2023-02-13T21:22:41.904Z,46.15
2023-02-13T21:25:10.891Z,44.05
2023-02-13T21:27:39.787Z,43.00
2023-02-13T21:30:09.860Z,45.85
2023-02-13T21:32:40.578Z,47.45
2023-02-13T21:35:10.686Z,40.28
2023-02-13T21:37:39.710Z,41.40
2023-02-13T21:40:09.404Z,47.72
2023-02-13T21:42:38.277Z,44.63
2023-02-13T21:45:07.361Z,48.00
2023-02-13T21:47:36.227Z,40.63
2023-02-13T21:50:06.619Z,40.22
2023-02-13T21:52:36.928Z,42.15
2023-02-13T21:55:07.929Z,43.95
2023-02-13T21:57:37.986Z,52.60
2023-02-13T22:00:11.161Z,49.33
2023-02-13T22:02:40.764Z,46.23
2023-02-13T22:05:09.854Z,52.75
2023-02-13T22:07:58.512Z,55.45
2023-02-13T22:10:27.701Z,46.10
2023-02-13T22:12:56.689Z,48.53
2023-02-13T22:15:25.788Z,50.40
2023-02-13T22:17:54.696Z,53.03
2023-02-13T22:20:23.944Z,46.40
2023-02-13T22:22:53.200Z,51.55
2023-02-13T22:25:22.402Z,65.68
2023-02-13T22:27:51.369Z,55.33
2023-02-13T22:30:20.588Z,49.83
2023-02-13T22:32:49.562Z,57.67
2023-02-13T22:35:18.612Z,54.28
2023-02-13T22:37:47.496Z,54.65
2023-02-13T22:40:16.426Z,58.53
2023-02-13T22:42:45.363Z,62.88
2023-02-13T22:45:14.298Z,57.03
2023-02-13T22:47:43.261Z,69.30
2023-02-13T22:50:12.429Z,51.53
2023-02-13T22:52:41.296Z,53.13
2023-02-13T22:55:10.340Z,95.97
2023-02-13T22:57:39.222Z,77.50
2023-02-13T23:00:10.570Z,71.45
2023-02-13T23:02:39.469Z,59.30
2023-02-13T23:05:08.612Z,54.30
2023-02-13T23:07:37.795Z,61.28
2023-02-13T23:10:07.230Z,57.50
2023-02-13T23:12:40.056Z,58.13
2023-02-13T23:15:12.738Z,53.22
2023-02-13T23:18:00.178Z,54.17
2023-02-13T23:20:29.309Z,52.70
2023-02-13T23:22:58.505Z,59.35
2023-02-13T23:25:27.489Z,59.47
2023-02-13T23:27:57.920Z,56.03
2023-02-13T23:30:27.098Z,63.65
2023-02-13T23:32:56.502Z,56.42
2023-02-13T23:35:25.665Z,65.00
2023-02-13T23:37:55.344Z,59.10
2023-02-13T23:40:24.316Z,62.60
2023-02-13T23:42:53.248Z,53.28
2023-02-13T23:45:22.335Z,59.00
2023-02-13T23:47:51.179Z,56.28
2023-02-13T23:50:20.253Z,65.72
2023-02-13T23:52:49.182Z,63.75
2023-02-13T23:55:18.140Z,59.85
2023-02-13T23:57:47.274Z,66.30
